createdAt,value
2023-04-26T00:01:44.318Z,99.90
2023-04-26T00:04:14.811Z,99.90
2023-04-26T00:06:43.697Z,99.90
2023-04-26T00:09:12.606Z,99.90
2023-04-26T00:11:41.240Z,99.90
2023-04-26T00:14:09.945Z,99.90
2023-04-26T00:16:38.753Z,99.90
2023-04-26T00:19:07.506Z,99.90
2023-04-26T00:21:38.157Z,99.90
2023-04-26T00:24:07.284Z,99.90
2023-04-26T00:26:36.518Z,99.90
2023-04-26T00:29:06.195Z,99.90
2023-04-26T00:31:34.834Z,99.90
2023-04-26T00:34:03.410Z,99.90
2023-04-26T00:36:32.519Z,99.90
2023-04-26T00:39:02.833Z,99.90
2023-04-26T00:41:31.556Z,99.90
2023-04-26T00:44:00.178Z,99.90
2023-04-26T00:46:30.767Z,99.90
2023-04-26T00:48:59.738Z,99.90
2023-04-26T00:51:28.506Z,99.90
2023-04-26T00:53:57.552Z,99.90
2023-04-26T00:56:28.165Z,99.90
2023-04-26T00:58:57.051Z,99.90
2023-04-26T01:01:25.916Z,99.90
2023-04-26T01:03:54.772Z,99.90
2023-04-26T01:06:24.307Z,99.90
2023-04-26T01:08:54.902Z,99.90
2023-04-26T01:11:24.296Z,99.90
2023-04-26T01:13:54.966Z,99.90
2023-04-26T01:16:24.778Z,99.90
2023-04-26T01:18:53.575Z,99.90
2023-04-26T01:21:22.962Z,99.90
2023-04-26T01:23:53.458Z,99.90
2023-04-26T01:26:22.150Z,99.90
2023-04-26T01:28:51.033Z,99.90
2023-04-26T01:31:19.754Z,99.90
2023-04-26T01:33:48.462Z,99.90
2023-04-26T01:36:16.963Z,99.90
2023-04-26T01:38:45.543Z,99.90
2023-04-26T01:41:15.645Z,99.90
2023-04-26T01:43:44.261Z,99.90
2023-04-26T01:46:12.916Z,99.90
2023-04-26T01:48:41.907Z,99.90
2023-04-26T01:51:11.061Z,99.90
2023-04-26T01:53:39.638Z,99.90
2023-04-26T01:56:08.944Z,99.90
2023-04-26T01:58:40.867Z,99.90
2023-04-26T02:01:11.335Z,99.90
2023-04-26T02:03:40.106Z,99.90
2023-04-26T02:06:09.044Z,99.90
2023-04-26T02:08:37.806Z,99.90
2023-04-26T02:11:06.452Z,99.90
2023-04-26T02:13:35.198Z,99.90
2023-04-26T02:16:06.393Z,99.90
2023-04-26T02:18:35.166Z,99.90
2023-04-26T02:21:03.728Z,99.90
2023-04-26T02:23:34.165Z,99.90
2023-04-26T02:26:03.399Z,99.90
2023-04-26T02:28:32.287Z,99.90
2023-04-26T02:31:00.986Z,99.90
2023-04-26T02:33:31.417Z,99.90
2023-04-26T02:36:00.110Z,99.90
2023-04-26T02:38:28.752Z,99.90
2023-04-26T02:41:02.104Z,99.90
2023-04-26T02:43:30.599Z,99.90
2023-04-26T02:46:01.367Z,99.90
2023-04-26T02:48:31.834Z,99.90
2023-04-26T02:51:00.343Z,99.90
2023-04-26T02:53:29.043Z,99.90
2023-04-26T02:55:57.618Z,99.90
2023-04-26T02:58:26.175Z,99.90
2023-04-26T03:00:55.391Z,99.90
2023-04-26T03:03:24.632Z,99.90
2023-04-26T03:05:54.720Z,99.90
2023-04-26T03:08:23.379Z,99.90
2023-04-26T03:10:51.921Z,99.90
2023-04-26T03:13:20.604Z,99.90
2023-04-26T03:15:50.052Z,99.90
2023-04-26T03:18:18.585Z,99.90
2023-04-26T03:20:47.951Z,99.90
2023-04-26T03:23:18.290Z,99.90
2023-04-26T03:25:47.472Z,99.90
2023-04-26T03:28:15.955Z,99.90
2023-04-26T03:30:44.640Z,99.90
2023-04-26T03:33:14.836Z,99.90
2023-04-26T03:35:43.438Z,99.90
2023-04-26T03:38:12.748Z,99.90
2023-04-26T03:40:43.344Z,99.90
2023-04-26T03:43:11.873Z,99.90
2023-04-26T03:45:40.528Z,99.90
2023-04-26T03:48:09.217Z,99.90
2023-04-26T03:50:37.925Z,99.90
2023-04-26T03:53:07.528Z,99.90
2023-04-26T03:55:36.060Z,99.90
2023-04-26T03:58:08.295Z,99.90
2023-04-26T04:00:39.105Z,99.90
2023-04-26T04:03:08.470Z,99.90
2023-04-26T04:05:37.405Z,99.90
2023-04-26T04:08:06.320Z,99.90
2023-04-26T04:10:35.069Z,99.90
2023-04-26T04:13:05.293Z,99.90
2023-04-26T04:15:33.965Z,99.90
2023-04-26T04:18:02.939Z,99.90
2023-04-26T04:20:31.677Z,99.90
2023-04-26T04:23:02.276Z,99.90
2023-04-26T04:25:31.599Z,99.90
2023-04-26T04:28:05.544Z,99.90
2023-04-26T04:30:34.787Z,99.90
2023-04-26T04:33:03.728Z,99.90
2023-04-26T04:35:33.834Z,99.90
2023-04-26T04:38:04.404Z,99.90
2023-04-26T04:40:33.426Z,99.90
2023-04-26T04:43:02.249Z,99.90
2023-04-26T04:45:33.823Z,99.90
2023-04-26T04:48:05.359Z,99.90
2023-04-26T04:50:34.283Z,99.90
2023-04-26T04:53:53.782Z,99.90
2023-04-26T04:56:22.725Z,99.90
2023-04-26T04:58:51.869Z,99.90
2023-04-26T05:01:23.043Z,99.90
2023-04-26T05:03:55.686Z,99.90
2023-04-26T05:06:25.527Z,99.90
2023-04-26T05:08:54.352Z,99.90
2023-04-26T05:12:38.360Z,99.90
2023-04-26T05:15:08.236Z,99.90
2023-04-26T05:17:38.518Z,99.90
2023-04-26T05:20:18.593Z,99.90
2023-04-26T05:22:47.988Z,99.90
2023-04-26T05:25:17.342Z,99.90
2023-04-26T05:27:49.342Z,99.90
2023-04-26T05:31:17.704Z,99.90
2023-04-26T05:34:11.228Z,99.90
2023-04-26T05:36:41.918Z,99.90
2023-04-26T05:39:10.688Z,99.90
2023-04-26T05:41:39.744Z,99.90
2023-04-26T05:44:08.346Z,99.90
2023-04-26T05:46:37.274Z,99.90
2023-04-26T05:49:06.637Z,99.90
2023-04-26T05:51:37.214Z,99.90
2023-04-26T05:54:06.851Z,99.90
2023-04-26T05:56:45.789Z,99.90
2023-04-26T05:59:14.480Z,99.90
2023-04-26T06:01:43.204Z,99.90
2023-04-26T06:04:12.156Z,99.90
2023-04-26T06:06:52.251Z,99.90
2023-04-26T06:09:24.038Z,99.90
2023-04-26T06:12:20.645Z,99.90
2023-04-26T06:14:49.979Z,99.90
2023-04-26T06:17:23.155Z,99.90
2023-04-26T06:19:52.398Z,99.90
2023-04-26T06:22:22.486Z,99.90
2023-04-26T06:24:51.315Z,99.90
2023-04-26T06:27:19.994Z,99.90
2023-04-26T06:29:51.382Z,99.90
2023-04-26T06:32:20.474Z,99.90
2023-04-26T06:34:49.175Z,99.90
2023-04-26T06:37:18.038Z,99.90
2023-04-26T06:39:48.286Z,99.90
2023-04-26T06:42:20.619Z,99.90
2023-04-26T06:45:09.418Z,99.90
2023-04-26T06:47:40.931Z,99.90
2023-04-26T06:50:11.102Z,99.90
2023-04-26T06:52:39.828Z,99.90
2023-04-26T06:55:11.777Z,99.90
2023-04-26T06:57:40.633Z,99.90
2023-04-26T07:00:10.987Z,99.90
2023-04-26T07:02:40.387Z,99.90
2023-04-26T07:05:09.929Z,99.90
2023-04-26T07:07:38.564Z,99.90
2023-04-26T07:10:08.392Z,99.90
2023-04-26T07:12:39.068Z,99.90
2023-04-26T07:15:09.371Z,99.90
2023-04-26T07:17:37.877Z,99.90
2023-04-26T07:20:07.394Z,99.90
2023-04-26T07:22:35.946Z,99.90
2023-04-26T07:25:05.489Z,99.90
2023-04-26T07:27:34.126Z,99.90
2023-04-26T07:30:05.422Z,99.90
2023-04-26T07:32:34.161Z,99.90
2023-04-26T07:35:02.795Z,99.90
2023-04-26T07:37:31.428Z,99.90
2023-04-26T07:40:00.197Z,99.90
2023-04-26T07:42:28.782Z,99.90
2023-04-26T07:44:57.292Z,99.90
2023-04-26T07:47:27.575Z,99.90
2023-04-26T07:49:56.130Z,99.90
2023-04-26T07:52:24.740Z,99.90
2023-04-26T07:54:53.421Z,99.90
2023-04-26T07:57:22.060Z,99.90
2023-04-26T07:59:50.654Z,99.90
2023-04-26T08:02:23.138Z,99.90
2023-04-26T08:04:58.084Z,99.90
2023-04-26T08:07:26.949Z,99.90
2023-04-26T08:09:59.609Z,99.90
2023-04-26T08:12:28.341Z,99.90
2023-04-26T08:14:57.133Z,99.90
2023-04-26T08:17:25.743Z,99.90
2023-04-26T08:19:54.715Z,99.90
2023-04-26T08:22:24.847Z,99.90
2023-04-26T08:24:57.520Z,99.90
2023-04-26T08:27:26.363Z,99.90
2023-04-26T08:29:55.002Z,96.60
2023-04-26T08:32:23.471Z,95.50
2023-04-26T08:34:52.245Z,95.30
2023-04-26T08:37:21.433Z,94.50
2023-04-26T08:39:51.587Z,94.30
2023-04-26T08:42:21.843Z,94.50
2023-04-26T08:44:50.939Z,93.40
2023-04-26T08:47:24.025Z,93.00
2023-04-26T08:49:59.876Z,91.30
2023-04-26T08:52:30.577Z,90.30
2023-04-26T08:55:01.735Z,90.90
2023-04-26T08:57:34.085Z,86.30
2023-04-26T09:00:05.832Z,85.90
2023-04-26T09:02:35.759Z,86.40
2023-04-26T09:05:07.098Z,86.20
2023-04-26T09:07:41.629Z,86.70
2023-04-26T09:10:12.978Z,86.10
2023-04-26T09:12:42.097Z,88.50
2023-04-26T09:15:11.940Z,85.70
2023-04-26T09:17:42.772Z,86.50
2023-04-26T09:20:23.619Z,88.00
2023-04-26T09:22:53.504Z,90.00
2023-04-26T09:25:31.628Z,90.30
2023-04-26T09:28:01.320Z,90.60
2023-04-26T09:30:30.978Z,90.40
2023-04-26T09:33:03.724Z,90.20
2023-04-26T09:35:34.067Z,89.60
2023-04-26T09:38:09.706Z,87.50
2023-04-26T09:40:43.899Z,89.20
2023-04-26T09:44:27.222Z,88.10
2023-04-26T09:47:04.057Z,87.40
2023-04-26T09:49:34.144Z,87.20
2023-04-26T09:52:04.815Z,84.60
2023-04-26T09:54:43.404Z,82.10
2023-04-26T09:57:14.440Z,81.40
2023-04-26T09:59:44.581Z,79.50
2023-04-26T10:02:17.990Z,78.60
2023-04-26T10:04:49.016Z,74.90
2023-04-26T10:07:18.954Z,76.80
2023-04-26T10:09:48.345Z,77.00
2023-04-26T10:12:20.269Z,77.40
2023-04-26T10:14:49.620Z,75.10
2023-04-26T10:17:20.719Z,76.20
2023-04-26T10:19:53.441Z,74.30
2023-04-26T10:22:25.471Z,74.30
2023-04-26T10:24:56.073Z,74.60
2023-04-26T10:27:51.206Z,72.40
2023-04-26T10:30:22.056Z,71.80
2023-04-26T10:33:17.772Z,72.80
2023-04-26T10:36:17.347Z,71.50
2023-04-26T10:39:20.501Z,71.60
2023-04-26T10:41:49.060Z,72.20
2023-04-26T10:44:50.095Z,68.10
2023-04-26T10:47:31.609Z,67.90
2023-04-26T10:50:07.445Z,68.20
2023-04-26T10:53:08.809Z,67.30
2023-04-26T10:55:40.965Z,67.70
2023-04-26T10:58:27.914Z,67.40
2023-04-26T11:01:08.453Z,68.10
2023-04-26T11:03:38.323Z,68.10
2023-04-26T11:06:09.701Z,66.50
2023-04-26T11:08:38.597Z,64.50
2023-04-26T11:11:12.351Z,62.60
2023-04-26T11:13:43.129Z,63.50
2023-04-26T11:16:14.835Z,63.70
2023-04-26T11:18:44.829Z,65.10
2023-04-26T11:21:18.115Z,64.40
2023-04-26T11:23:55.199Z,63.30
2023-04-26T11:26:24.877Z,64.70
2023-04-26T11:28:53.756Z,65.10
2023-04-26T11:31:25.023Z,61.50
2023-04-26T11:33:53.598Z,64.30
2023-04-26T11:36:24.390Z,61.10
2023-04-26T11:38:54.502Z,61.20
2023-04-26T11:41:25.305Z,60.90
2023-04-26T11:43:53.832Z,63.30
2023-04-26T11:46:24.553Z,61.50
2023-04-26T11:48:53.623Z,60.70
2023-04-26T11:51:24.112Z,62.10
2023-04-26T11:53:53.035Z,59.60
2023-04-26T11:56:23.260Z,59.90
2023-04-26T11:58:53.130Z,58.40
2023-04-26T12:01:24.992Z,57.40
2023-04-26T12:04:19.797Z,57.10
2023-04-26T12:06:49.918Z,57.00
2023-04-26T12:09:18.667Z,58.00
2023-04-26T12:11:51.264Z,58.00
2023-04-26T12:14:19.917Z,59.00
2023-04-26T12:16:50.020Z,58.30
2023-04-26T12:19:18.560Z,58.30
2023-04-26T12:21:50.497Z,58.60
2023-04-26T12:24:24.287Z,56.60
2023-04-26T12:26:53.460Z,57.20
2023-04-26T12:29:22.078Z,55.90
2023-04-26T12:31:52.222Z,56.40
2023-04-26T12:34:20.754Z,56.20
2023-04-26T12:36:49.707Z,56.20
2023-04-26T12:39:18.399Z,55.90
2023-04-26T12:41:47.500Z,54.50
2023-04-26T12:44:16.047Z,54.80
2023-04-26T12:46:44.859Z,53.20
2023-04-26T12:49:15.049Z,52.60
2023-04-26T12:51:43.558Z,53.00
2023-04-26T12:54:12.271Z,54.30
2023-04-26T12:56:44.569Z,54.30
2023-04-26T12:59:13.270Z,55.00
2023-04-26T13:01:42.188Z,57.40
2023-04-26T13:04:11.473Z,56.10
2023-04-26T13:06:41.734Z,56.20
2023-04-26T13:09:12.938Z,56.30
2023-04-26T13:11:41.953Z,56.30
2023-04-26T13:14:10.652Z,56.00
2023-04-26T13:16:43.874Z,54.90
2023-04-26T13:19:12.737Z,53.40
2023-04-26T13:21:42.861Z,53.30
2023-04-26T13:24:11.576Z,53.60
2023-04-26T13:26:40.152Z,54.10
2023-04-26T13:29:08.830Z,54.30
2023-04-26T13:31:38.051Z,54.60
2023-04-26T13:34:07.304Z,54.40
2023-04-26T13:36:36.001Z,54.60
2023-04-26T13:39:07.424Z,54.40
2023-04-26T13:41:36.507Z,55.00
2023-04-26T13:44:06.078Z,55.10
2023-04-26T13:46:34.805Z,54.10
2023-04-26T13:49:03.758Z,54.30
2023-04-26T13:51:34.233Z,54.50
2023-04-26T13:54:02.914Z,54.70
2023-04-26T13:56:33.068Z,54.80
2023-04-26T13:59:03.770Z,55.60
2023-04-26T14:01:32.939Z,56.40
2023-04-26T14:04:01.737Z,56.60
2023-04-26T14:06:30.323Z,56.70
2023-04-26T14:08:59.039Z,56.80
2023-04-26T14:11:28.123Z,56.10
2023-04-26T14:13:58.198Z,54.90
2023-04-26T14:16:27.249Z,53.20
2023-04-26T14:18:55.936Z,54.00
2023-04-26T14:21:24.668Z,54.20
2023-04-26T14:23:53.332Z,54.80
2023-04-26T14:26:23.936Z,56.10
2023-04-26T14:28:52.675Z,57.30
2023-04-26T14:31:24.418Z,56.10
2023-04-26T14:33:53.169Z,56.40
2023-04-26T14:36:22.019Z,54.80
2023-04-26T14:38:50.626Z,56.50
2023-04-26T14:41:19.928Z,55.50
2023-04-26T14:43:48.638Z,54.60
2023-04-26T14:46:17.384Z,54.40
2023-04-26T14:48:47.782Z,54.50
2023-04-26T14:51:16.376Z,54.40
2023-04-26T14:53:45.078Z,54.10
2023-04-26T14:56:13.737Z,53.70
2023-04-26T14:58:42.370Z,54.60
2023-04-26T15:01:10.991Z,55.70
2023-04-26T15:03:40.437Z,55.60
2023-04-26T15:06:11.310Z,55.20
2023-04-26T15:08:40.120Z,56.10
2023-04-26T15:11:08.909Z,55.60
2023-04-26T15:13:37.503Z,55.90
2023-04-26T15:16:08.035Z,56.20
2023-04-26T15:18:37.520Z,56.80
2023-04-26T15:21:06.283Z,58.00
2023-04-26T15:23:36.517Z,58.10
2023-04-26T15:26:05.484Z,57.60
2023-04-26T15:28:34.428Z,56.60
2023-04-26T15:31:03.917Z,56.50
2023-04-26T15:33:32.727Z,56.30
2023-04-26T15:36:01.407Z,55.50
2023-04-26T15:38:30.051Z,55.40
2023-04-26T15:41:00.337Z,54.90
2023-04-26T15:43:59.608Z,55.10
2023-04-26T15:46:28.486Z,55.00
2023-04-26T15:48:57.249Z,54.80
2023-04-26T15:51:31.996Z,55.00
2023-04-26T15:55:21.662Z,55.20
2023-04-26T15:57:51.857Z,54.70
2023-04-26T16:00:21.018Z,55.50
2023-04-26T16:02:49.885Z,54.10
2023-04-26T16:05:18.681Z,54.50
2023-04-26T16:08:27.728Z,55.00
2023-04-26T16:11:07.276Z,54.60
2023-04-26T16:13:37.496Z,54.70
2023-04-26T16:16:34.167Z,54.50
2023-04-26T16:19:03.837Z,54.60
2023-04-26T16:21:33.842Z,55.00
2023-04-26T16:24:02.626Z,54.90
2023-04-26T16:26:31.333Z,54.70
2023-04-26T16:29:05.599Z,55.70
2023-04-26T16:31:34.779Z,56.00
2023-04-26T16:34:03.610Z,56.80
2023-04-26T16:36:33.083Z,56.40
2023-04-26T16:39:01.798Z,56.40
2023-04-26T16:41:30.573Z,55.90
2023-04-26T16:44:34.658Z,56.30
2023-04-26T16:47:57.137Z,56.60
2023-04-26T16:50:51.706Z,56.70
2023-04-26T16:53:21.277Z,56.60
2023-04-26T16:55:50.758Z,56.90
2023-04-26T16:58:19.824Z,56.60
2023-04-26T17:00:49.898Z,57.40
2023-04-26T17:03:18.984Z,57.60
2023-04-26T17:05:49.542Z,57.60
2023-04-26T17:08:20.256Z,57.60
2023-04-26T17:10:49.871Z,57.60
2023-04-26T17:13:19.010Z,59.80
2023-04-26T17:15:49.341Z,58.50
2023-04-26T17:18:17.878Z,58.60
2023-04-26T17:20:48.450Z,58.00
2023-04-26T17:23:17.132Z,58.10
2023-04-26T17:25:45.832Z,57.50
2023-04-26T17:28:14.921Z,58.40
2023-04-26T17:30:44.727Z,58.30
2023-04-26T17:33:14.815Z,58.70
2023-04-26T17:35:43.456Z,59.60
2023-04-26T17:38:12.027Z,60.80
2023-04-26T17:40:40.606Z,61.90
2023-04-26T17:43:09.293Z,61.50
2023-04-26T17:45:38.002Z,62.60
2023-04-26T17:48:13.332Z,63.30
2023-04-26T17:50:43.664Z,63.50
2023-04-26T17:53:12.386Z,62.00
2023-04-26T17:55:41.531Z,59.90
2023-04-26T17:58:10.208Z,59.20
2023-04-26T18:00:38.799Z,58.00
2023-04-26T18:03:08.047Z,57.50
2023-04-26T18:05:36.776Z,58.10
2023-04-26T18:08:07.129Z,59.10
2023-04-26T18:10:35.817Z,60.30
2023-04-26T18:13:04.420Z,61.70
2023-04-26T18:15:33.194Z,62.50
2023-04-26T18:18:05.578Z,64.10
2023-04-26T18:20:36.161Z,65.00
2023-04-26T18:23:06.517Z,65.80
2023-04-26T18:25:35.243Z,66.00
2023-04-26T18:28:03.955Z,67.00
2023-04-26T18:30:32.582Z,67.30
2023-04-26T18:33:01.247Z,67.70
2023-04-26T18:35:29.903Z,69.50
2023-04-26T18:37:58.466Z,70.50
2023-04-26T18:40:32.877Z,72.10
2023-04-26T18:43:01.870Z,72.10
2023-04-26T18:45:30.616Z,72.30
2023-04-26T18:47:59.639Z,72.90
2023-04-26T18:50:28.445Z,73.60
2023-04-26T18:52:57.610Z,74.50
2023-04-26T18:55:27.666Z,74.70
2023-04-26T18:57:57.916Z,75.20
2023-04-26T19:00:26.804Z,75.90
2023-04-26T19:03:01.577Z,76.70
2023-04-26T19:05:30.560Z,77.50
2023-04-26T19:07:59.277Z,77.60
2023-04-26T19:10:59.337Z,78.20
2023-04-26T19:13:29.447Z,79.10
2023-04-26T19:15:58.224Z,80.30
2023-04-26T19:18:27.224Z,80.80
2023-04-26T19:20:55.932Z,81.30
2023-04-26T19:23:24.755Z,82.50
2023-04-26T19:25:53.342Z,83.80
2023-04-26T19:28:21.972Z,85.30
2023-04-26T19:30:51.864Z,86.90
2023-04-26T19:33:20.824Z,88.30
2023-04-26T19:35:49.550Z,89.70
2023-04-26T19:38:18.315Z,90.40
2023-04-26T19:40:47.253Z,91.00
2023-04-26T19:43:17.396Z,91.50
2023-04-26T19:45:46.462Z,92.00
2023-04-26T19:48:16.988Z,92.10
2023-04-26T19:50:47.031Z,92.80
2023-04-26T19:53:16.598Z,93.20
2023-04-26T19:55:45.547Z,93.40
2023-04-26T19:58:14.225Z,95.10
2023-04-26T20:00:43.912Z,96.10
2023-04-26T20:03:12.905Z,96.70
2023-04-26T20:05:43.166Z,97.40
2023-04-26T20:08:11.905Z,98.20
2023-04-26T20:10:41.773Z,98.90
2023-04-26T20:13:10.837Z,99.80
2023-04-26T20:15:39.592Z,99.90
2023-04-26T20:18:08.448Z,99.90
2023-04-26T20:20:37.482Z,99.90
2023-04-26T20:23:07.632Z,99.90
2023-04-26T20:25:36.408Z,99.90
2023-04-26T20:28:05.283Z,99.90
2023-04-26T20:30:34.499Z,99.90
2023-04-26T20:33:03.261Z,99.90
2023-04-26T20:35:31.969Z,99.90
2023-04-26T20:38:00.701Z,99.90
2023-04-26T20:40:30.775Z,99.90
2023-04-26T20:42:59.492Z,99.90
2023-04-26T20:45:28.366Z,99.90
2023-04-26T20:47:57.020Z,99.90
2023-04-26T20:50:28.489Z,99.90
2023-04-26T20:52:57.286Z,99.90
2023-04-26T20:55:26.133Z,99.90
2023-04-26T20:57:56.199Z,99.90
2023-04-26T21:00:24.979Z,99.90
2023-04-26T21:02:53.655Z,99.90
2023-04-26T21:05:24.081Z,99.90
2023-04-26T21:07:52.778Z,99.90
2023-04-26T21:10:21.981Z,99.90
2023-04-26T21:12:50.693Z,99.90
2023-04-26T21:15:21.295Z,99.90
2023-04-26T21:17:49.957Z,99.90
2023-04-26T21:20:18.745Z,99.90
2023-04-26T21:22:47.453Z,99.90
2023-04-26T21:25:19.692Z,99.90
2023-04-26T21:27:48.921Z,99.90
2023-04-26T21:30:17.858Z,99.90
2023-04-26T21:32:48.020Z,99.90
2023-04-26T21:35:16.697Z,99.90
2023-04-26T21:37:45.441Z,99.90
2023-04-26T21:40:14.908Z,99.90
2023-04-26T21:42:48.912Z,99.90
2023-04-26T21:45:23.031Z,99.90
2023-04-26T21:47:53.150Z,99.90
2023-04-26T21:50:21.947Z,99.90
2023-04-26T21:52:50.727Z,99.90
2023-04-26T21:55:19.387Z,99.90
2023-04-26T21:57:47.945Z,99.90
2023-04-26T22:00:17.398Z,99.90
2023-04-26T22:02:48.467Z,99.90
2023-04-26T22:05:18.757Z,99.90
2023-04-26T22:07:47.451Z,99.90
2023-04-26T22:10:16.578Z,99.90
2023-04-26T22:12:45.454Z,99.90
2023-04-26T22:15:14.147Z,99.90
2023-04-26T22:17:42.778Z,99.90
2023-04-26T22:20:12.733Z,99.90
2023-04-26T22:22:42.897Z,99.90
2023-04-26T22:25:11.845Z,99.90
2023-04-26T22:27:40.543Z,99.90
2023-04-26T22:30:24.129Z,99.90
2023-04-26T22:32:55.604Z,99.90
2023-04-26T22:35:25.360Z,99.90
2023-04-26T22:37:55.867Z,99.90
2023-04-26T22:40:25.778Z,99.90
2023-04-26T22:42:54.704Z,99.90
2023-04-26T22:45:23.482Z,99.90
2023-04-26T22:47:52.225Z,99.90
2023-04-26T22:50:21.113Z,99.90
2023-04-26T22:52:49.950Z,99.90
2023-04-26T22:55:20.357Z,99.90
2023-04-26T22:57:49.018Z,99.90
2023-04-26T23:00:18.115Z,99.90
2023-04-26T23:02:47.106Z,99.90
2023-04-26T23:05:16.381Z,99.90
2023-04-26T23:07:45.786Z,99.90
2023-04-26T23:10:14.531Z,99.90
2023-04-26T23:12:44.989Z,99.90
2023-04-26T23:15:13.885Z,99.90
2023-04-26T23:17:42.917Z,99.90
2023-04-26T23:20:13.218Z,99.90
2023-04-26T23:22:43.318Z,99.90
2023-04-26T23:25:12.283Z,99.90
2023-04-26T23:27:41.565Z,99.90
2023-04-26T23:30:14.022Z,99.90
2023-04-26T23:32:42.815Z,99.90
2023-04-26T23:35:11.829Z,99.90
2023-04-26T23:37:40.470Z,99.90
2023-04-26T23:40:10.661Z,99.90
2023-04-26T23:42:39.388Z,99.90
2023-04-26T23:45:09.192Z,99.90
2023-04-26T23:47:39.355Z,99.90
2023-04-26T23:50:08.991Z,99.90
2023-04-26T23:52:37.687Z,99.90
2023-04-26T23:55:08.176Z,99.90
2023-04-26T23:57:36.817Z,99.90
